sensor_id;sensor_type;location;lat;lon;timestamp;P1;durP1;ratioP1;P2;durP2;ratioP2
75634;SDS011;64227;48.724;9.104;2023-02-28T00:00:11;2.33;;;1.08;;
75634;SDS011;64227;48.724;9.104;2023-02-28T00:02:38;1.60;;;1.13;;
75634;SDS011;64227;48.724;9.104;2023-02-28T00:05:04;1.88;;;1.30;;
75634;SDS011;64227;48.724;9.104;2023-02-28T00:07:30;3.03;;;1.58;;
75634;SDS011;64227;48.724;9.104;2023-02-28T00:09:56;2.90;;;2.25;;
75634;SDS011;64227;48.724;9.104;2023-02-28T00:12:22;2.50;;;1.48;;
75634;SDS011;64227;48.724;9.104;2023-02-28T00:14:47;3.40;;;1.65;;
75634;SDS011;64227;48.724;9.104;2023-02-28T00:17:13;2.05;;;1.50;;
75634;SDS011;64227;48.724;9.104;2023-02-28T00:19:38;1.42;;;1.08;;
75634;SDS011;64227;48.724;9.104;2023-02-28T00:22:03;1.65;;;1.27;;
75634;SDS011;64227;48.724;9.104;2023-02-28T00:24:29;1.53;;;1.13;;
75634;SDS011;64227;48.724;9.104;2023-02-28T00:26:54;1.85;;;1.27;;
75634;SDS011;64227;48.724;9.104;2023-02-28T00:29:19;2.88;;;1.75;;
75634;SDS011;64227;48.724;9.104;2023-02-28T00:31:45;2.58;;;1.50;;
75634;SDS011;64227;48.724;9.104;2023-02-28T00:34:10;2.20;;;1.30;;
75634;SDS011;64227;48.724;9.104;2023-02-28T00:36:35;1.40;;;1.10;;
75634;SDS011;64227;48.724;9.104;2023-02-28T00:39:00;4.33;;;1.93;;
75634;SDS011;64227;48.724;9.104;2023-02-28T00:41:26;3.93;;;1.87;;
75634;SDS011;64227;48.724;9.104;2023-02-28T00:43:51;2.37;;;1.53;;
75634;SDS011;64227;48.724;9.104;2023-02-28T00:46:16;2.22;;;1.33;;
75634;SDS011;64227;48.724;9.104;2023-02-28T00:48:42;4.60;;;1.60;;
75634;SDS011;64227;48.724;9.104;2023-02-28T00:51:07;4.27;;;2.10;;
75634;SDS011;64227;48.724;9.104;2023-02-28T00:53:32;1.85;;;1.30;;
75634;SDS011;64227;48.724;9.104;2023-02-28T00:55:58;4.05;;;1.42;;
75634;SDS011;64227;48.724;9.104;2023-02-28T00:58:23;3.35;;;1.50;;
75634;SDS011;64227;48.724;9.104;2023-02-28T01:00:49;2.25;;;1.13;;
75634;SDS011;64227;48.724;9.104;2023-02-28T01:03:16;2.17;;;1.65;;
75634;SDS011;64227;48.724;9.104;2023-02-28T01:05:42;3.65;;;1.17;;
75634;SDS011;64227;48.724;9.104;2023-02-28T01:08:07;1.13;;;0.82;;
75634;SDS011;64227;48.724;9.104;2023-02-28T01:10:33;1.67;;;0.82;;
75634;SDS011;64227;48.724;9.104;2023-02-28T01:12:58;2.17;;;0.98;;
75634;SDS011;64227;48.724;9.104;2023-02-28T01:15:24;2.20;;;1.13;;
75634;SDS011;64227;48.724;9.104;2023-02-28T01:17:49;3.55;;;1.60;;
75634;SDS011;64227;48.724;9.104;2023-02-28T01:20:14;1.13;;;0.80;;
75634;SDS011;64227;48.724;9.104;2023-02-28T01:22:40;3.70;;;1.10;;
75634;SDS011;64227;48.724;9.104;2023-02-28T01:25:05;3.33;;;1.13;;
75634;SDS011;64227;48.724;9.104;2023-02-28T01:27:30;1.23;;;1.13;;
75634;SDS011;64227;48.724;9.104;2023-02-28T01:29:56;2.70;;;1.33;;
75634;SDS011;64227;48.724;9.104;2023-02-28T01:32:21;1.50;;;1.20;;
75634;SDS011;64227;48.724;9.104;2023-02-28T01:34:46;1.30;;;0.85;;
75634;SDS011;64227;48.724;9.104;2023-02-28T01:37:12;1.15;;;1.05;;
75634;SDS011;64227;48.724;9.104;2023-02-28T01:39:37;1.67;;;0.87;;
75634;SDS011;64227;48.724;9.104;2023-02-28T01:42:02;2.85;;;1.10;;
75634;SDS011;64227;48.724;9.104;2023-02-28T01:47:34;2.35;;;0.77;;
75634;SDS011;64227;48.724;9.104;2023-02-28T01:50:02;1.52;;;1.00;;
75634;SDS011;64227;48.724;9.104;2023-02-28T01:52:30;1.65;;;0.85;;
75634;SDS011;64227;48.724;9.104;2023-02-28T01:54:56;2.72;;;0.93;;
75634;SDS011;64227;48.724;9.104;2023-02-28T01:57:25;2.60;;;1.25;;
75634;SDS011;64227;48.724;9.104;2023-02-28T01:59:56;3.35;;;1.13;;
75634;SDS011;64227;48.724;9.104;2023-02-28T02:02:26;1.10;;;1.00;;
75634;SDS011;64227;48.724;9.104;2023-02-28T02:04:59;1.52;;;1.10;;
75634;SDS011;64227;48.724;9.104;2023-02-28T02:07:32;2.58;;;1.45;;
75634;SDS011;64227;48.724;9.104;2023-02-28T02:10:05;1.15;;;1.00;;
75634;SDS011;64227;48.724;9.104;2023-02-28T02:15:31;2.40;;;1.38;;
75634;SDS011;64227;48.724;9.104;2023-02-28T02:21:16;1.98;;;1.30;;
75634;SDS011;64227;48.724;9.104;2023-02-28T02:37:21;1.38;;;1.23;;
75634;SDS011;64227;48.724;9.104;2023-02-28T02:39:57;1.95;;;1.20;;
75634;SDS011;64227;48.724;9.104;2023-02-28T02:43:13;1.20;;;1.10;;
75634;SDS011;64227;48.724;9.104;2023-02-28T02:45:25;3.10;;;1.67;;
75634;SDS011;64227;48.724;9.104;2023-02-28T02:47:55;3.13;;;1.20;;
75634;SDS011;64227;48.724;9.104;2023-02-28T02:50:26;2.63;;;1.42;;
75634;SDS011;64227;48.724;9.104;2023-02-28T02:52:56;1.90;;;1.30;;
75634;SDS011;64227;48.724;9.104;2023-02-28T02:55:23;2.03;;;1.40;;
75634;SDS011;64227;48.724;9.104;2023-02-28T02:57:53;2.45;;;1.40;;
75634;SDS011;64227;48.724;9.104;2023-02-28T03:00:23;2.50;;;1.50;;
75634;SDS011;64227;48.724;9.104;2023-02-28T03:02:51;2.50;;;1.45;;
75634;SDS011;64227;48.724;9.104;2023-02-28T03:05:19;2.25;;;1.30;;
75634;SDS011;64227;48.724;9.104;2023-02-28T03:07:47;3.10;;;1.73;;
75634;SDS011;64227;48.724;9.104;2023-02-28T03:10:26;4.03;;;1.70;;
75634;SDS011;64227;48.724;9.104;2023-02-28T03:15:44;3.22;;;1.52;;
75634;SDS011;64227;48.724;9.104;2023-02-28T03:18:36;2.00;;;1.80;;
75634;SDS011;64227;48.724;9.104;2023-02-28T03:21:14;2.42;;;1.42;;
75634;SDS011;64227;48.724;9.104;2023-02-28T03:23:51;2.53;;;1.65;;
75634;SDS011;64227;48.724;9.104;2023-02-28T03:26:33;2.92;;;2.13;;
75634;SDS011;64227;48.724;9.104;2023-02-28T03:29:17;3.65;;;1.73;;
75634;SDS011;64227;48.724;9.104;2023-02-28T03:32:00;1.73;;;1.30;;
75634;SDS011;64227;48.724;9.104;2023-02-28T03:34:34;6.43;;;1.85;;
75634;SDS011;64227;48.724;9.104;2023-02-28T03:37:04;5.78;;;1.90;;
75634;SDS011;64227;48.724;9.104;2023-02-28T03:39:40;3.13;;;1.92;;
75634;SDS011;64227;48.724;9.104;2023-02-28T03:42:15;3.40;;;2.17;;
75634;SDS011;64227;48.724;9.104;2023-02-28T03:44:57;2.42;;;1.33;;
75634;SDS011;64227;48.724;9.104;2023-02-28T03:47:25;2.50;;;1.63;;
75634;SDS011;64227;48.724;9.104;2023-02-28T03:49:54;3.10;;;1.60;;
75634;SDS011;64227;48.724;9.104;2023-02-28T03:52:23;3.72;;;1.77;;
75634;SDS011;64227;48.724;9.104;2023-02-28T03:54:51;3.72;;;1.52;;
75634;SDS011;64227;48.724;9.104;2023-02-28T03:57:25;3.25;;;1.83;;
75634;SDS011;64227;48.724;9.104;2023-02-28T03:59:59;2.38;;;1.88;;
75634;SDS011;64227;48.724;9.104;2023-02-28T04:02:30;2.63;;;1.50;;
75634;SDS011;64227;48.724;9.104;2023-02-28T04:04:56;4.88;;;1.90;;
75634;SDS011;64227;48.724;9.104;2023-02-28T04:07:21;5.18;;;2.03;;
75634;SDS011;64227;48.724;9.104;2023-02-28T04:09:47;4.03;;;1.67;;
75634;SDS011;64227;48.724;9.104;2023-02-28T04:12:12;2.55;;;1.67;;
75634;SDS011;64227;48.724;9.104;2023-02-28T04:14:37;3.13;;;2.03;;
75634;SDS011;64227;48.724;9.104;2023-02-28T04:17:03;4.65;;;2.20;;
75634;SDS011;64227;48.724;9.104;2023-02-28T04:19:28;3.30;;;1.83;;
75634;SDS011;64227;48.724;9.104;2023-02-28T04:21:53;3.72;;;2.08;;
75634;SDS011;64227;48.724;9.104;2023-02-28T04:24:23;2.22;;;1.52;;
75634;SDS011;64227;48.724;9.104;2023-02-28T04:26:51;2.45;;;1.52;;
75634;SDS011;64227;48.724;9.104;2023-02-28T04:29:23;3.13;;;1.60;;
75634;SDS011;64227;48.724;9.104;2023-02-28T04:31:52;1.83;;;1.38;;
75634;SDS011;64227;48.724;9.104;2023-02-28T04:34:18;2.42;;;1.73;;
75634;SDS011;64227;48.724;9.104;2023-02-28T04:36:44;3.70;;;2.17;;
75634;SDS011;64227;48.724;9.104;2023-02-28T04:39:11;3.05;;;1.85;;
75634;SDS011;64227;48.724;9.104;2023-02-28T04:41:36;4.88;;;2.38;;
75634;SDS011;64227;48.724;9.104;2023-02-28T04:44:02;3.13;;;2.42;;
75634;SDS011;64227;48.724;9.104;2023-02-28T04:46:27;2.67;;;1.63;;
75634;SDS011;64227;48.724;9.104;2023-02-28T04:48:52;4.00;;;1.75;;
75634;SDS011;64227;48.724;9.104;2023-02-28T04:51:19;3.80;;;2.13;;
75634;SDS011;64227;48.724;9.104;2023-02-28T04:53:44;4.00;;;2.10;;
75634;SDS011;64227;48.724;9.104;2023-02-28T04:56:11;4.15;;;2.45;;
75634;SDS011;64227;48.724;9.104;2023-02-28T04:58:38;2.63;;;1.70;;
75634;SDS011;64227;48.724;9.104;2023-02-28T05:03:42;2.58;;;1.70;;
75634;SDS011;64227;48.724;9.104;2023-02-28T05:06:08;3.70;;;1.63;;
75634;SDS011;64227;48.724;9.104;2023-02-28T05:08:35;2.97;;;1.70;;
75634;SDS011;64227;48.724;9.104;2023-02-28T05:11:00;3.85;;;2.38;;
75634;SDS011;64227;48.724;9.104;2023-02-28T05:13:27;3.10;;;2.17;;
75634;SDS011;64227;48.724;9.104;2023-02-28T05:15:53;1.83;;;1.50;;
75634;SDS011;64227;48.724;9.104;2023-02-28T05:18:18;3.20;;;2.17;;
75634;SDS011;64227;48.724;9.104;2023-02-28T05:20:43;2.55;;;1.98;;
75634;SDS011;64227;48.724;9.104;2023-02-28T05:23:10;3.90;;;2.15;;
75634;SDS011;64227;48.724;9.104;2023-02-28T05:25:36;3.28;;;2.13;;
75634;SDS011;64227;48.724;9.104;2023-02-28T05:28:01;5.30;;;2.28;;
75634;SDS011;64227;48.724;9.104;2023-02-28T05:30:27;4.93;;;2.50;;
75634;SDS011;64227;48.724;9.104;2023-02-28T05:32:52;6.10;;;3.30;;
75634;SDS011;64227;48.724;9.104;2023-02-28T05:35:17;5.20;;;2.63;;
75634;SDS011;64227;48.724;9.104;2023-02-28T05:37:43;4.85;;;2.47;;
75634;SDS011;64227;48.724;9.104;2023-02-28T05:40:09;3.60;;;2.15;;
75634;SDS011;64227;48.724;9.104;2023-02-28T05:42:35;3.55;;;2.10;;
75634;SDS011;64227;48.724;9.104;2023-02-28T05:45:01;4.05;;;2.13;;
75634;SDS011;64227;48.724;9.104;2023-02-28T05:47:26;6.13;;;2.20;;
75634;SDS011;64227;48.724;9.104;2023-02-28T05:49:51;5.23;;;2.43;;
75634;SDS011;64227;48.724;9.104;2023-02-28T05:52:17;3.83;;;2.75;;
75634;SDS011;64227;48.724;9.104;2023-02-28T05:54:42;4.75;;;2.72;;
75634;SDS011;64227;48.724;9.104;2023-02-28T05:57:07;4.13;;;2.05;;
75634;SDS011;64227;48.724;9.104;2023-02-28T05:59:33;3.40;;;2.20;;
75634;SDS011;64227;48.724;9.104;2023-02-28T06:01:58;2.65;;;2.15;;
75634;SDS011;64227;48.724;9.104;2023-02-28T06:04:23;4.43;;;2.33;;
75634;SDS011;64227;48.724;9.104;2023-02-28T06:06:49;4.25;;;2.75;;
75634;SDS011;64227;48.724;9.104;2023-02-28T06:09:15;3.92;;;2.17;;
75634;SDS011;64227;48.724;9.104;2023-02-28T06:11:41;4.72;;;3.00;;
75634;SDS011;64227;48.724;9.104;2023-02-28T06:14:06;5.32;;;2.78;;
75634;SDS011;64227;48.724;9.104;2023-02-28T06:16:32;5.88;;;2.88;;
75634;SDS011;64227;48.724;9.104;2023-02-28T06:18:59;3.40;;;2.45;;
75634;SDS011;64227;48.724;9.104;2023-02-28T06:21:25;4.68;;;2.47;;
75634;SDS011;64227;48.724;9.104;2023-02-28T06:23:52;4.28;;;2.75;;
75634;SDS011;64227;48.724;9.104;2023-02-28T06:26:17;5.38;;;2.53;;
75634;SDS011;64227;48.724;9.104;2023-02-28T06:28:43;5.05;;;2.97;;
75634;SDS011;64227;48.724;9.104;2023-02-28T06:31:09;5.78;;;3.05;;
75634;SDS011;64227;48.724;9.104;2023-02-28T06:33:36;8.02;;;3.30;;
75634;SDS011;64227;48.724;9.104;2023-02-28T06:36:03;5.05;;;3.10;;
75634;SDS011;64227;48.724;9.104;2023-02-28T06:38:28;7.55;;;3.47;;
75634;SDS011;64227;48.724;9.104;2023-02-28T06:40:54;5.18;;;3.60;;
75634;SDS011;64227;48.724;9.104;2023-02-28T06:43:20;8.85;;;4.07;;
75634;SDS011;64227;48.724;9.104;2023-02-28T06:45:45;9.90;;;5.82;;
75634;SDS011;64227;48.724;9.104;2023-02-28T06:48:11;15.95;;;6.57;;
75634;SDS011;64227;48.724;9.104;2023-02-28T06:50:36;9.38;;;4.47;;
75634;SDS011;64227;48.724;9.104;2023-02-28T06:53:02;6.75;;;3.70;;
75634;SDS011;64227;48.724;9.104;2023-02-28T06:55:27;4.20;;;2.85;;
75634;SDS011;64227;48.724;9.104;2023-02-28T06:57:52;5.28;;;3.35;;
75634;SDS011;64227;48.724;9.104;2023-02-28T07:00:19;6.00;;;3.20;;
75634;SDS011;64227;48.724;9.104;2023-02-28T07:02:45;6.72;;;3.17;;
75634;SDS011;64227;48.724;9.104;2023-02-28T07:05:11;8.43;;;4.10;;
75634;SDS011;64227;48.724;9.104;2023-02-28T07:07:37;6.53;;;3.60;;
75634;SDS011;64227;48.724;9.104;2023-02-28T07:10:05;9.93;;;3.55;;
75634;SDS011;64227;48.724;9.104;2023-02-28T07:12:31;7.63;;;3.60;;
75634;SDS011;64227;48.724;9.104;2023-02-28T07:14:56;10.98;;;5.60;;
75634;SDS011;64227;48.724;9.104;2023-02-28T07:17:21;9.50;;;5.20;;
75634;SDS011;64227;48.724;9.104;2023-02-28T07:19:47;9.75;;;4.63;;
75634;SDS011;64227;48.724;9.104;2023-02-28T07:22:12;8.60;;;4.18;;
75634;SDS011;64227;48.724;9.104;2023-02-28T07:24:37;7.03;;;4.35;;
75634;SDS011;64227;48.724;9.104;2023-02-28T07:27:03;8.82;;;4.38;;
75634;SDS011;64227;48.724;9.104;2023-02-28T07:29:28;9.35;;;4.28;;
75634;SDS011;64227;48.724;9.104;2023-02-28T07:31:54;7.13;;;3.95;;
75634;SDS011;64227;48.724;9.104;2023-02-28T07:34:19;6.38;;;4.22;;
75634;SDS011;64227;48.724;9.104;2023-02-28T07:36:45;6.00;;;3.80;;
75634;SDS011;64227;48.724;9.104;2023-02-28T07:39:10;4.75;;;3.13;;
75634;SDS011;64227;48.724;9.104;2023-02-28T07:41:36;6.15;;;3.80;;
75634;SDS011;64227;48.724;9.104;2023-02-28T07:44:08;5.93;;;3.13;;
75634;SDS011;64227;48.724;9.104;2023-02-28T07:46:33;6.63;;;3.33;;
75634;SDS011;64227;48.724;9.104;2023-02-28T07:49:00;5.40;;;3.47;;
75634;SDS011;64227;48.724;9.104;2023-02-28T07:51:27;7.60;;;3.67;;
75634;SDS011;64227;48.724;9.104;2023-02-28T07:53:53;9.82;;;3.97;;
75634;SDS011;64227;48.724;9.104;2023-02-28T07:56:19;4.55;;;3.50;;
75634;SDS011;64227;48.724;9.104;2023-02-28T07:58:44;7.38;;;3.55;;
75634;SDS011;64227;48.724;9.104;2023-02-28T08:01:09;5.73;;;3.70;;
75634;SDS011;64227;48.724;9.104;2023-02-28T08:03:35;7.88;;;3.28;;
75634;SDS011;64227;48.724;9.104;2023-02-28T08:06:05;4.70;;;2.95;;
75634;SDS011;64227;48.724;9.104;2023-02-28T08:08:31;5.65;;;3.50;;
75634;SDS011;64227;48.724;9.104;2023-02-28T08:11:00;6.65;;;3.63;;
75634;SDS011;64227;48.724;9.104;2023-02-28T08:13:27;5.05;;;3.85;;
75634;SDS011;64227;48.724;9.104;2023-02-28T08:15:53;6.63;;;3.15;;
75634;SDS011;64227;48.724;9.104;2023-02-28T08:18:19;6.72;;;4.07;;
75634;SDS011;64227;48.724;9.104;2023-02-28T08:20:45;7.10;;;3.53;;
75634;SDS011;64227;48.724;9.104;2023-02-28T08:23:10;5.13;;;3.07;;
75634;SDS011;64227;48.724;9.104;2023-02-28T08:25:36;5.82;;;3.60;;
75634;SDS011;64227;48.724;9.104;2023-02-28T08:28:01;6.53;;;3.65;;
75634;SDS011;64227;48.724;9.104;2023-02-28T08:30:26;6.15;;;3.78;;
75634;SDS011;64227;48.724;9.104;2023-02-28T08:32:52;6.45;;;3.22;;
75634;SDS011;64227;48.724;9.104;2023-02-28T08:35:17;5.68;;;4.00;;
75634;SDS011;64227;48.724;9.104;2023-02-28T08:37:42;5.15;;;3.15;;
75634;SDS011;64227;48.724;9.104;2023-02-28T08:40:08;5.32;;;3.05;;
75634;SDS011;64227;48.724;9.104;2023-02-28T08:42:34;6.43;;;3.47;;
75634;SDS011;64227;48.724;9.104;2023-02-28T08:44:59;7.18;;;3.92;;
75634;SDS011;64227;48.724;9.104;2023-02-28T08:47:25;8.25;;;3.78;;
75634;SDS011;64227;48.724;9.104;2023-02-28T08:49:50;6.35;;;3.92;;
75634;SDS011;64227;48.724;9.104;2023-02-28T08:52:15;7.88;;;4.32;;
75634;SDS011;64227;48.724;9.104;2023-02-28T08:54:41;7.55;;;3.55;;
75634;SDS011;64227;48.724;9.104;2023-02-28T08:57:06;5.20;;;3.28;;
75634;SDS011;64227;48.724;9.104;2023-02-28T08:59:31;5.47;;;3.53;;
75634;SDS011;64227;48.724;9.104;2023-02-28T09:01:57;6.70;;;3.55;;
75634;SDS011;64227;48.724;9.104;2023-02-28T09:04:22;6.00;;;3.85;;
75634;SDS011;64227;48.724;9.104;2023-02-28T09:06:47;5.15;;;3.30;;
75634;SDS011;64227;48.724;9.104;2023-02-28T09:09:13;5.90;;;3.35;;
75634;SDS011;64227;48.724;9.104;2023-02-28T09:11:40;12.15;;;4.28;;
75634;SDS011;64227;48.724;9.104;2023-02-28T09:14:05;7.07;;;3.77;;
75634;SDS011;64227;48.724;9.104;2023-02-28T09:16:31;6.72;;;4.18;;
75634;SDS011;64227;48.724;9.104;2023-02-28T09:18:57;9.30;;;4.05;;
75634;SDS011;64227;48.724;9.104;2023-02-28T09:21:22;7.00;;;3.58;;
75634;SDS011;64227;48.724;9.104;2023-02-28T09:23:48;6.97;;;3.95;;
75634;SDS011;64227;48.724;9.104;2023-02-28T09:26:15;6.05;;;3.35;;
75634;SDS011;64227;48.724;9.104;2023-02-28T09:28:51;5.97;;;3.30;;
75634;SDS011;64227;48.724;9.104;2023-02-28T09:31:19;7.00;;;3.75;;
75634;SDS011;64227;48.724;9.104;2023-02-28T09:36:16;10.43;;;4.80;;
75634;SDS011;64227;48.724;9.104;2023-02-28T09:38:42;11.27;;;6.70;;
75634;SDS011;64227;48.724;9.104;2023-02-28T09:41:15;16.92;;;7.70;;
75634;SDS011;64227;48.724;9.104;2023-02-28T09:43:43;13.63;;;7.00;;
75634;SDS011;64227;48.724;9.104;2023-02-28T09:46:27;9.55;;;4.72;;
75634;SDS011;64227;48.724;9.104;2023-02-28T09:48:56;9.65;;;4.97;;
75634;SDS011;64227;48.724;9.104;2023-02-28T09:53:59;7.45;;;4.15;;
75634;SDS011;64227;48.724;9.104;2023-02-28T09:56:27;7.40;;;4.32;;
75634;SDS011;64227;48.724;9.104;2023-02-28T10:01:47;5.90;;;3.67;;
75634;SDS011;64227;48.724;9.104;2023-02-28T10:04:42;6.22;;;4.13;;
75634;SDS011;64227;48.724;9.104;2023-02-28T10:10:01;6.18;;;3.72;;
75634;SDS011;64227;48.724;9.104;2023-02-28T10:12:28;6.32;;;4.15;;
75634;SDS011;64227;48.724;9.104;2023-02-28T10:14:54;6.30;;;3.78;;
75634;SDS011;64227;48.724;9.104;2023-02-28T10:17:24;8.90;;;4.53;;
75634;SDS011;64227;48.724;9.104;2023-02-28T10:20:02;5.50;;;3.78;;
75634;SDS011;64227;48.724;9.104;2023-02-28T10:25:33;6.95;;;4.38;;
75634;SDS011;64227;48.724;9.104;2023-02-28T10:28:04;5.95;;;3.78;;
75634;SDS011;64227;48.724;9.104;2023-02-28T10:30:36;5.97;;;3.45;;
75634;SDS011;64227;48.724;9.104;2023-02-28T10:33:02;8.40;;;4.65;;
75634;SDS011;64227;48.724;9.104;2023-02-28T10:35:27;6.38;;;3.88;;
75634;SDS011;64227;48.724;9.104;2023-02-28T10:37:57;6.38;;;4.22;;
75634;SDS011;64227;48.724;9.104;2023-02-28T10:43:22;6.77;;;4.20;;
75634;SDS011;64227;48.724;9.104;2023-02-28T10:45:52;6.65;;;3.95;;
75634;SDS011;64227;48.724;9.104;2023-02-28T10:50:45;8.73;;;4.13;;
75634;SDS011;64227;48.724;9.104;2023-02-28T10:56:04;7.57;;;4.13;;
75634;SDS011;64227;48.724;9.104;2023-02-28T11:04:03;9.00;;;4.05;;
75634;SDS011;64227;48.724;9.104;2023-02-28T11:06:29;8.38;;;4.07;;
75634;SDS011;64227;48.724;9.104;2023-02-28T11:09:00;6.90;;;4.25;;
75634;SDS011;64227;48.724;9.104;2023-02-28T11:11:28;7.60;;;4.05;;
75634;SDS011;64227;48.724;9.104;2023-02-28T11:13:55;6.07;;;4.07;;
75634;SDS011;64227;48.724;9.104;2023-02-28T11:16:22;7.03;;;4.15;;
75634;SDS011;64227;48.724;9.104;2023-02-28T11:18:57;6.35;;;4.15;;
75634;SDS011;64227;48.724;9.104;2023-02-28T11:21:25;6.63;;;4.32;;
75634;SDS011;64227;48.724;9.104;2023-02-28T11:23:55;6.00;;;4.18;;
75634;SDS011;64227;48.724;9.104;2023-02-28T11:26:36;7.13;;;4.10;;
75634;SDS011;64227;48.724;9.104;2023-02-28T11:29:08;6.22;;;3.95;;
75634;SDS011;64227;48.724;9.104;2023-02-28T11:31:36;6.97;;;4.05;;
75634;SDS011;64227;48.724;9.104;2023-02-28T11:34:01;7.30;;;4.50;;
75634;SDS011;64227;48.724;9.104;2023-02-28T11:36:27;10.13;;;5.32;;
75634;SDS011;64227;48.724;9.104;2023-02-28T11:39:04;8.18;;;4.43;;
75634;SDS011;64227;48.724;9.104;2023-02-28T11:41:39;8.15;;;4.13;;
75634;SDS011;64227;48.724;9.104;2023-02-28T11:44:15;8.73;;;4.57;;
75634;SDS011;64227;48.724;9.104;2023-02-28T11:46:48;8.45;;;4.35;;
75634;SDS011;64227;48.724;9.104;2023-02-28T11:54:45;7.82;;;3.95;;
75634;SDS011;64227;48.724;9.104;2023-02-28T12:00:08;7.22;;;4.20;;
75634;SDS011;64227;48.724;9.104;2023-02-28T12:08:31;7.85;;;3.65;;
75634;SDS011;64227;48.724;9.104;2023-02-28T12:11:19;5.78;;;4.70;;
75634;SDS011;64227;48.724;9.104;2023-02-28T12:14:13;7.32;;;4.28;;
75634;SDS011;64227;48.724;9.104;2023-02-28T12:22:25;5.65;;;3.85;;
75634;SDS011;64227;48.724;9.104;2023-02-28T12:25:01;5.07;;;4.40;;
75634;SDS011;64227;48.724;9.104;2023-02-28T12:27:38;7.18;;;4.68;;
75634;SDS011;64227;48.724;9.104;2023-02-28T12:32:39;5.18;;;4.28;;
75634;SDS011;64227;48.724;9.104;2023-02-28T12:35:11;7.45;;;5.32;;
75634;SDS011;64227;48.724;9.104;2023-02-28T12:37:40;6.53;;;4.13;;
75634;SDS011;64227;48.724;9.104;2023-02-28T12:40:13;6.15;;;3.92;;
75634;SDS011;64227;48.724;9.104;2023-02-28T12:42:51;6.35;;;4.07;;
75634;SDS011;64227;48.724;9.104;2023-02-28T12:45:20;5.82;;;3.97;;
75634;SDS011;64227;48.724;9.104;2023-02-28T12:47:52;7.95;;;5.20;;
75634;SDS011;64227;48.724;9.104;2023-02-28T12:50:22;6.80;;;4.25;;
75634;SDS011;64227;48.724;9.104;2023-02-28T13:09:23;7.95;;;4.40;;
75634;SDS011;64227;48.724;9.104;2023-02-28T13:11:49;5.10;;;3.92;;
75634;SDS011;64227;48.724;9.104;2023-02-28T13:14:20;6.30;;;4.65;;
75634;SDS011;64227;48.724;9.104;2023-02-28T13:17:21;5.68;;;4.18;;
75634;SDS011;64227;48.724;9.104;2023-02-28T13:22:41;7.60;;;5.93;;
75634;SDS011;64227;48.724;9.104;2023-02-28T13:27:46;5.60;;;4.78;;
75634;SDS011;64227;48.724;9.104;2023-02-28T13:36:10;8.30;;;5.10;;
75634;SDS011;64227;48.724;9.104;2023-02-28T13:38:36;8.20;;;5.90;;
75634;SDS011;64227;48.724;9.104;2023-02-28T13:41:40;8.73;;;5.60;;
75634;SDS011;64227;48.724;9.104;2023-02-28T13:44:07;7.28;;;5.55;;
75634;SDS011;64227;48.724;9.104;2023-02-28T13:47:13;9.98;;;4.57;;
75634;SDS011;64227;48.724;9.104;2023-02-28T13:49:31;6.53;;;4.35;;
75634;SDS011;64227;48.724;9.104;2023-02-28T13:57:29;6.75;;;4.78;;
75634;SDS011;64227;48.724;9.104;2023-02-28T14:00:21;5.97;;;4.55;;
75634;SDS011;64227;48.724;9.104;2023-02-28T14:03:02;5.43;;;4.13;;
75634;SDS011;64227;48.724;9.104;2023-02-28T14:05:35;9.98;;;5.32;;
75634;SDS011;64227;48.724;9.104;2023-02-28T14:08:14;6.45;;;4.15;;
75634;SDS011;64227;48.724;9.104;2023-02-28T14:10:43;7.13;;;4.70;;
75634;SDS011;64227;48.724;9.104;2023-02-28T14:13:13;8.65;;;5.43;;
75634;SDS011;64227;48.724;9.104;2023-02-28T14:15:46;6.50;;;4.18;;
75634;SDS011;64227;48.724;9.104;2023-02-28T14:20:43;7.72;;;4.82;;
75634;SDS011;64227;48.724;9.104;2023-02-28T14:23:25;6.53;;;4.40;;
75634;SDS011;64227;48.724;9.104;2023-02-28T14:28:48;6.82;;;4.22;;
75634;SDS011;64227;48.724;9.104;2023-02-28T14:31:34;5.75;;;4.03;;
75634;SDS011;64227;48.724;9.104;2023-02-28T14:36:37;6.70;;;3.75;;
75634;SDS011;64227;48.724;9.104;2023-02-28T14:39:05;6.05;;;4.35;;
75634;SDS011;64227;48.724;9.104;2023-02-28T14:41:33;5.18;;;4.07;;
75634;SDS011;64227;48.724;9.104;2023-02-28T14:44:17;6.72;;;4.28;;
75634;SDS011;64227;48.724;9.104;2023-02-28T14:46:48;5.95;;;4.03;;
75634;SDS011;64227;48.724;9.104;2023-02-28T14:49:23;7.53;;;5.05;;
75634;SDS011;64227;48.724;9.104;2023-02-28T14:52:01;6.10;;;3.95;;
75634;SDS011;64227;48.724;9.104;2023-02-28T14:54:46;6.40;;;4.25;;
75634;SDS011;64227;48.724;9.104;2023-02-28T14:57:24;6.90;;;4.45;;
75634;SDS011;64227;48.724;9.104;2023-02-28T15:00:24;6.82;;;3.80;;
75634;SDS011;64227;48.724;9.104;2023-02-28T15:02:45;7.93;;;4.70;;
75634;SDS011;64227;48.724;9.104;2023-02-28T15:07:46;5.57;;;3.78;;
75634;SDS011;64227;48.724;9.104;2023-02-28T15:12:58;7.93;;;4.10;;
75634;SDS011;64227;48.724;9.104;2023-02-28T15:21:05;6.25;;;3.38;;
75634;SDS011;64227;48.724;9.104;2023-02-28T15:23:31;7.47;;;4.63;;
75634;SDS011;64227;48.724;9.104;2023-02-28T15:25:58;11.18;;;5.90;;
75634;SDS011;64227;48.724;9.104;2023-02-28T15:28:24;15.40;;;8.05;;
75634;SDS011;64227;48.724;9.104;2023-02-28T15:30:57;43.45;;;19.80;;
75634;SDS011;64227;48.724;9.104;2023-02-28T15:33:30;14.35;;;6.57;;
75634;SDS011;64227;48.724;9.104;2023-02-28T15:36:03;7.78;;;5.03;;
75634;SDS011;64227;48.724;9.104;2023-02-28T15:38:32;8.40;;;4.43;;
75634;SDS011;64227;48.724;9.104;2023-02-28T15:40:59;6.20;;;4.45;;
75634;SDS011;64227;48.724;9.104;2023-02-28T15:43:35;6.00;;;3.63;;
75634;SDS011;64227;48.724;9.104;2023-02-28T15:46:06;8.20;;;4.45;;
75634;SDS011;64227;48.724;9.104;2023-02-28T15:51:23;5.10;;;3.75;;
75634;SDS011;64227;48.724;9.104;2023-02-28T15:53:56;7.85;;;4.68;;
75634;SDS011;64227;48.724;9.104;2023-02-28T15:56:24;6.85;;;4.18;;
75634;SDS011;64227;48.724;9.104;2023-02-28T15:58:58;6.80;;;4.13;;
75634;SDS011;64227;48.724;9.104;2023-02-28T16:01:27;7.03;;;4.35;;
75634;SDS011;64227;48.724;9.104;2023-02-28T16:03:56;5.22;;;3.92;;
75634;SDS011;64227;48.724;9.104;2023-02-28T16:06:38;5.85;;;4.07;;
75634;SDS011;64227;48.724;9.104;2023-02-28T16:11:34;7.70;;;5.07;;
75634;SDS011;64227;48.724;9.104;2023-02-28T16:16:28;7.55;;;3.83;;
75634;SDS011;64227;48.724;9.104;2023-02-28T16:18:53;7.78;;;4.18;;
75634;SDS011;64227;48.724;9.104;2023-02-28T16:21:19;8.43;;;4.70;;
75634;SDS011;64227;48.724;9.104;2023-02-28T16:23:44;8.18;;;5.03;;
75634;SDS011;64227;48.724;9.104;2023-02-28T16:26:16;7.18;;;4.30;;
75634;SDS011;64227;48.724;9.104;2023-02-28T16:28:44;6.63;;;4.47;;
75634;SDS011;64227;48.724;9.104;2023-02-28T16:31:09;7.85;;;4.80;;
75634;SDS011;64227;48.724;9.104;2023-02-28T16:33:41;7.85;;;5.15;;
75634;SDS011;64227;48.724;9.104;2023-02-28T16:36:06;6.75;;;4.60;;
75634;SDS011;64227;48.724;9.104;2023-02-28T16:38:36;7.32;;;4.38;;
75634;SDS011;64227;48.724;9.104;2023-02-28T16:41:02;6.07;;;4.22;;
75634;SDS011;64227;48.724;9.104;2023-02-28T16:43:27;8.40;;;4.95;;
75634;SDS011;64227;48.724;9.104;2023-02-28T16:45:56;7.10;;;4.28;;
75634;SDS011;64227;48.724;9.104;2023-02-28T16:48:23;6.75;;;4.07;;
75634;SDS011;64227;48.724;9.104;2023-02-28T16:50:48;7.53;;;4.07;;
75634;SDS011;64227;48.724;9.104;2023-02-28T16:53:13;7.60;;;3.72;;
75634;SDS011;64227;48.724;9.104;2023-02-28T16:55:39;6.38;;;3.70;;
75634;SDS011;64227;48.724;9.104;2023-02-28T16:58:04;6.07;;;3.42;;
75634;SDS011;64227;48.724;9.104;2023-02-28T17:00:30;8.32;;;4.65;;
75634;SDS011;64227;48.724;9.104;2023-02-28T17:02:56;6.22;;;4.13;;
75634;SDS011;64227;48.724;9.104;2023-02-28T17:05:23;8.20;;;4.57;;
75634;SDS011;64227;48.724;9.104;2023-02-28T17:07:49;10.93;;;5.68;;
75634;SDS011;64227;48.724;9.104;2023-02-28T17:10:16;9.02;;;5.43;;
75634;SDS011;64227;48.724;9.104;2023-02-28T17:12:43;7.68;;;4.65;;
75634;SDS011;64227;48.724;9.104;2023-02-28T17:15:09;6.00;;;4.43;;